createdAt,value
2023-04-04T00:00:54.108Z,1026.51
2023-04-04T00:01:54.083Z,1026.45
2023-04-04T00:02:54.133Z,1026.45
2023-04-04T00:03:54.279Z,1026.46
2023-04-04T00:04:54.066Z,1026.46
2023-04-04T00:05:54.732Z,1026.46
2023-04-04T00:06:54.714Z,1026.43
2023-04-04T00:07:54.706Z,1026.40
2023-04-04T00:08:54.021Z,1026.42
2023-04-04T00:09:54.681Z,1026.41
2023-04-04T00:10:53.983Z,1026.41
2023-04-04T00:11:53.969Z,1026.40
2023-04-04T00:12:53.969Z,1026.43
2023-04-04T00:13:54.620Z,1026.39
2023-04-04T00:14:53.941Z,1026.39
2023-04-04T00:15:54.631Z,1026.39
2023-04-04T00:16:53.923Z,1026.40
2023-04-04T00:17:53.936Z,1026.35
2023-04-04T00:18:54.566Z,1026.39
2023-04-04T00:19:54.571Z,1026.39
2023-04-04T00:20:54.565Z,1026.40
2023-04-04T00:21:54.552Z,1026.44
2023-04-04T00:22:53.861Z,1026.39
2023-04-04T00:23:53.867Z,1026.36
2023-04-04T00:24:53.843Z,1026.39
2023-04-04T00:25:54.512Z,1026.37
2023-04-04T00:26:54.503Z,1026.38
2023-04-04T00:27:53.800Z,1026.36
2023-04-04T00:28:53.826Z,1026.36
2023-04-04T00:29:53.786Z,1026.37
2023-04-04T00:30:53.770Z,1026.34
2023-04-04T00:31:54.722Z,1026.35
2023-04-04T00:32:54.489Z,1026.36
2023-04-04T00:33:54.409Z,1026.36
2023-04-04T00:34:54.416Z,1026.37
2023-04-04T00:35:54.437Z,1026.36
2023-04-04T00:36:53.718Z,1026.32
2023-04-04T00:37:53.694Z,1026.33
2023-04-04T00:38:53.711Z,1026.35
2023-04-04T00:39:53.681Z,1026.38
2023-04-04T00:40:53.683Z,1026.34
2023-04-04T00:41:54.347Z,1026.36
2023-04-04T00:42:53.644Z,1026.29
2023-04-04T00:43:54.311Z,1026.31
2023-04-04T00:44:54.317Z,1026.29
2023-04-04T00:45:54.387Z,1026.33
2023-04-04T00:46:53.614Z,1026.31
2023-04-04T00:47:53.622Z,1026.25
2023-04-04T00:48:54.253Z,1026.28
2023-04-04T00:49:54.264Z,1026.20
2023-04-04T00:50:54.263Z,1026.25
2023-04-04T00:51:53.555Z,1026.29
2023-04-04T00:52:54.245Z,1026.24
2023-04-04T00:53:54.200Z,1026.24
2023-04-04T00:54:54.208Z,1026.21
2023-04-04T00:55:54.206Z,1026.23
2023-04-04T00:56:54.199Z,1026.22
2023-04-04T00:57:54.177Z,1026.22
2023-04-04T00:58:53.522Z,1026.21
2023-04-04T00:59:53.469Z,1026.24
2023-04-04T01:00:54.218Z,1026.26
2023-04-04T01:01:54.168Z,1026.20
2023-04-04T01:02:54.156Z,1026.25
2023-04-04T01:03:54.128Z,1026.23
2023-04-04T01:04:54.100Z,1026.20
2023-04-04T01:05:54.099Z,1026.20
2023-04-04T01:06:54.084Z,1026.16
2023-04-04T01:07:54.070Z,1026.20
2023-04-04T01:08:54.047Z,1026.22
2023-04-04T01:09:53.354Z,1026.19
2023-04-04T01:10:53.355Z,1026.16
2023-04-04T01:11:54.024Z,1026.20
2023-04-04T01:12:53.323Z,1026.18
2023-04-04T01:13:53.329Z,1026.18
2023-04-04T01:14:53.316Z,1026.21
2023-04-04T01:15:53.300Z,1026.18
2023-04-04T01:16:53.352Z,1026.17
2023-04-04T01:17:53.983Z,1026.16
2023-04-04T01:18:53.936Z,1026.15
2023-04-04T01:19:53.252Z,1026.15
2023-04-04T01:20:53.926Z,1026.15
2023-04-04T01:21:53.914Z,1026.13
2023-04-04T01:22:53.908Z,1026.11
2023-04-04T01:23:53.228Z,1026.08
2023-04-04T01:24:53.886Z,1026.08
2023-04-04T01:25:53.179Z,1026.09
2023-04-04T01:26:53.174Z,1026.09
2023-04-04T01:27:53.169Z,1026.05
2023-04-04T01:28:53.840Z,1026.08
2023-04-04T01:29:53.165Z,1026.08
2023-04-04T01:30:53.135Z,1026.10
2023-04-04T01:31:55.059Z,1026.11
2023-04-04T01:32:53.152Z,1026.09
2023-04-04T01:33:53.996Z,1026.09
2023-04-04T01:34:53.106Z,1026.06
2023-04-04T01:35:53.802Z,1026.04
2023-04-04T01:36:53.763Z,1026.10
2023-04-04T01:37:53.057Z,1026.07
2023-04-04T01:38:53.731Z,1026.08
2023-04-04T01:39:53.059Z,1026.11
2023-04-04T01:40:53.017Z,1026.09
2023-04-04T01:41:53.699Z,1026.06
2023-04-04T01:42:53.691Z,1026.04
2023-04-04T01:43:53.679Z,1026.06
2023-04-04T01:44:53.648Z,1026.06
2023-04-04T01:45:53.031Z,1025.99
2023-04-04T01:46:52.943Z,1026.04
2023-04-04T01:47:53.009Z,1026.00
2023-04-04T01:48:53.618Z,1025.98
2023-04-04T01:49:52.963Z,1025.97
2023-04-04T01:50:52.923Z,1025.99
2023-04-04T01:51:53.614Z,1025.96
2023-04-04T01:52:52.895Z,1025.94
2023-04-04T01:53:52.890Z,1025.93
2023-04-04T01:54:53.555Z,1025.91
2023-04-04T01:55:53.560Z,1025.89
2023-04-04T01:56:52.851Z,1025.89
2023-04-04T01:57:53.530Z,1025.89
2023-04-04T01:58:53.546Z,1025.95
2023-04-04T01:59:53.513Z,1025.92
2023-04-04T02:00:53.509Z,1025.89
2023-04-04T02:01:52.985Z,1025.90
2023-04-04T02:02:53.495Z,1025.94
2023-04-04T02:03:53.553Z,1025.98
2023-04-04T02:04:53.452Z,1025.96
2023-04-04T02:05:53.442Z,1025.97
2023-04-04T02:06:53.434Z,1026.02
2023-04-04T02:07:53.454Z,1025.99
2023-04-04T02:08:53.411Z,1025.98
2023-04-04T02:09:52.732Z,1026.03
2023-04-04T02:10:53.393Z,1026.00
2023-04-04T02:11:52.717Z,1026.02
2023-04-04T02:12:53.374Z,1025.95
2023-04-04T02:13:53.369Z,1025.95
2023-04-04T02:14:53.333Z,1025.92
2023-04-04T02:15:52.774Z,1025.95
2023-04-04T02:16:53.331Z,1025.92
2023-04-04T02:17:53.337Z,1025.98
2023-04-04T02:18:53.323Z,1025.94
2023-04-04T02:19:53.274Z,1025.98
2023-04-04T02:20:53.283Z,1026.00
2023-04-04T02:21:53.272Z,1025.98
2023-04-04T02:22:53.262Z,1025.99
2023-04-04T02:23:53.252Z,1026.01
2023-04-04T02:24:53.226Z,1026.01
2023-04-04T02:25:53.232Z,1026.02
2023-04-04T02:26:53.220Z,1025.99
2023-04-04T02:27:53.216Z,1026.05
2023-04-04T02:28:53.222Z,1026.01
2023-04-04T02:29:53.477Z,1025.99
2023-04-04T02:30:53.177Z,1025.93
2023-04-04T02:31:53.172Z,1025.93
2023-04-04T02:32:53.509Z,1025.97
2023-04-04T02:33:53.400Z,1025.90
2023-04-04T02:34:53.405Z,1025.94
2023-04-04T02:35:53.149Z,1025.98
2023-04-04T02:36:53.401Z,1026.00
2023-04-04T02:37:53.109Z,1025.96
2023-04-04T02:38:53.859Z,1026.03
2023-04-04T02:39:53.356Z,1025.99
2023-04-04T02:40:53.347Z,1026.02
2023-04-04T02:41:53.318Z,1026.02
2023-04-04T02:42:53.324Z,1026.02
2023-04-04T02:43:53.293Z,1026.00
2023-04-04T02:44:53.013Z,1025.99
2023-04-04T02:45:53.292Z,1025.96
2023-04-04T02:46:53.018Z,1025.97
2023-04-04T02:47:53.340Z,1025.93
2023-04-04T02:48:53.251Z,1025.93
2023-04-04T02:49:52.967Z,1025.94
2023-04-04T02:50:53.258Z,1025.89
2023-04-04T02:51:53.224Z,1025.88
2023-04-04T02:52:52.949Z,1025.88
2023-04-04T02:53:53.205Z,1025.83
2023-04-04T02:54:53.194Z,1025.81
2023-04-04T02:55:53.166Z,1025.82
2023-04-04T02:56:52.909Z,1025.74
2023-04-04T02:57:52.900Z,1025.73
2023-04-04T02:58:53.165Z,1025.74
2023-04-04T02:59:52.862Z,1025.65
2023-04-04T03:00:53.208Z,1025.68
2023-04-04T03:01:52.931Z,1025.67
2023-04-04T03:02:53.258Z,1025.68
2023-04-04T03:03:53.216Z,1025.63
2023-04-04T03:04:53.101Z,1025.66
2023-04-04T03:05:53.078Z,1025.65
2023-04-04T03:06:53.095Z,1025.66
2023-04-04T03:07:53.045Z,1025.64
2023-04-04T03:08:52.788Z,1025.66
2023-04-04T03:09:53.057Z,1025.69
2023-04-04T03:10:53.020Z,1025.71
2023-04-04T03:11:53.026Z,1025.67
2023-04-04T03:12:52.753Z,1025.64
2023-04-04T03:13:52.052Z,1025.67
2023-04-04T03:14:52.702Z,1025.64
2023-04-04T03:15:52.990Z,1025.60
2023-04-04T03:16:52.838Z,1025.61
2023-04-04T03:17:52.747Z,1025.61
2023-04-04T03:18:52.000Z,1025.67
2023-04-04T03:19:52.950Z,1025.63
2023-04-04T03:20:52.656Z,1025.55
2023-04-04T03:21:52.917Z,1025.60
2023-04-04T03:22:52.635Z,1025.60
2023-04-04T03:23:52.646Z,1025.56
2023-04-04T03:24:52.908Z,1025.57
2023-04-04T03:25:52.605Z,1025.56
2023-04-04T03:26:52.860Z,1025.55
2023-04-04T03:27:52.851Z,1025.55
2023-04-04T03:28:52.571Z,1025.52
2023-04-04T03:29:52.540Z,1025.56
2023-04-04T03:30:52.545Z,1025.55
2023-04-04T03:31:52.541Z,1025.58
2023-04-04T03:32:52.564Z,1025.54
2023-04-04T03:33:52.779Z,1025.55
2023-04-04T03:34:52.489Z,1025.49
2023-04-04T03:35:52.797Z,1025.50
2023-04-04T03:36:52.738Z,1025.51
2023-04-04T03:37:52.539Z,1025.50
2023-04-04T03:38:52.471Z,1025.47
2023-04-04T03:39:52.750Z,1025.47
2023-04-04T03:40:52.696Z,1025.45
2023-04-04T03:41:52.427Z,1025.44
2023-04-04T03:42:52.679Z,1025.40
2023-04-04T03:43:52.681Z,1025.43
2023-04-04T03:44:52.377Z,1025.41
2023-04-04T03:45:51.761Z,1025.43
2023-04-04T03:46:51.687Z,1025.40
2023-04-04T03:47:51.701Z,1025.39
2023-04-04T03:48:51.660Z,1025.39
2023-04-04T03:49:52.351Z,1025.41
2023-04-04T03:50:51.656Z,1025.40
2023-04-04T03:51:51.639Z,1025.40
2023-04-04T03:52:51.633Z,1025.43
2023-04-04T03:53:52.311Z,1025.37
2023-04-04T03:54:51.641Z,1025.44
2023-04-04T03:55:52.833Z,1025.41
2023-04-04T03:56:51.669Z,1025.44
2023-04-04T03:57:52.261Z,1025.40
2023-04-04T03:58:52.412Z,1025.45
2023-04-04T03:59:52.269Z,1025.42
2023-04-04T04:00:51.597Z,1025.41
2023-04-04T04:01:52.326Z,1025.38
2023-04-04T04:02:52.327Z,1025.40
2023-04-04T04:03:52.268Z,1025.40
2023-04-04T04:04:52.173Z,1025.41
2023-04-04T04:05:51.519Z,1025.45
2023-04-04T04:06:52.171Z,1025.37
2023-04-04T04:07:52.164Z,1025.36
2023-04-04T04:08:51.474Z,1025.31
2023-04-04T04:09:51.472Z,1025.40
2023-04-04T04:10:51.445Z,1025.33
2023-04-04T04:11:51.441Z,1025.34
2023-04-04T04:12:52.105Z,1025.33
2023-04-04T04:13:52.100Z,1025.37
2023-04-04T04:14:51.434Z,1025.36
2023-04-04T04:15:51.451Z,1025.37
2023-04-04T04:16:52.072Z,1025.36
2023-04-04T04:17:52.076Z,1025.39
2023-04-04T04:18:51.382Z,1025.39
2023-04-04T04:19:51.373Z,1025.38
2023-04-04T04:20:51.344Z,1025.38
2023-04-04T04:21:52.017Z,1025.39
2023-04-04T04:22:54.044Z,1025.42
2023-04-04T04:23:51.993Z,1025.42
2023-04-04T04:24:51.966Z,1025.40
2023-04-04T04:25:51.289Z,1025.36
2023-04-04T04:26:51.281Z,1025.35
2023-04-04T04:27:51.273Z,1025.41
2023-04-04T04:28:51.948Z,1025.40
2023-04-04T04:29:51.920Z,1025.38
2023-04-04T04:30:51.923Z,1025.37
2023-04-04T04:31:51.231Z,1025.39
2023-04-04T04:32:51.924Z,1025.38
2023-04-04T04:33:52.156Z,1025.36
2023-04-04T04:34:51.876Z,1025.36
2023-04-04T04:35:51.219Z,1025.30
2023-04-04T04:36:51.172Z,1025.34
2023-04-04T04:37:51.164Z,1025.32
2023-04-04T04:38:51.152Z,1025.32
2023-04-04T04:39:51.814Z,1025.31
2023-04-04T04:40:51.822Z,1025.30
2023-04-04T04:41:51.132Z,1025.28
2023-04-04T04:42:53.340Z,1025.30
2023-04-04T04:43:51.793Z,1025.25
2023-04-04T04:44:51.769Z,1025.28
2023-04-04T04:45:51.771Z,1025.27
2023-04-04T04:46:51.088Z,1025.27
2023-04-04T04:47:51.812Z,1025.31
2023-04-04T04:48:51.090Z,1025.30
2023-04-04T04:49:51.711Z,1025.35
2023-04-04T04:50:51.034Z,1025.28
2023-04-04T04:51:51.723Z,1025.32
2023-04-04T04:52:51.014Z,1025.36
2023-04-04T04:53:51.014Z,1025.30
2023-04-04T04:54:51.025Z,1025.33
2023-04-04T04:55:51.668Z,1025.25
2023-04-04T04:56:51.660Z,1025.28
2023-04-04T04:57:50.972Z,1025.24
2023-04-04T04:58:51.037Z,1025.25
2023-04-04T04:59:50.951Z,1025.29
2023-04-04T05:00:50.931Z,1025.35
2023-04-04T05:01:50.947Z,1025.31
2023-04-04T05:02:51.727Z,1025.33
2023-04-04T05:03:52.911Z,1025.34
2023-04-04T05:04:51.554Z,1025.41
2023-04-04T05:05:50.885Z,1025.35
2023-04-04T05:06:51.549Z,1025.38
2023-04-04T05:07:51.544Z,1025.38
2023-04-04T05:08:51.534Z,1025.39
2023-04-04T05:09:51.504Z,1025.39
2023-04-04T05:10:50.820Z,1025.42
2023-04-04T05:11:51.523Z,1025.37
2023-04-04T05:12:51.482Z,1025.42
2023-04-04T05:13:50.776Z,1025.47
2023-04-04T05:14:51.459Z,1025.48
2023-04-04T05:15:51.456Z,1025.50
2023-04-04T05:16:50.760Z,1025.59
2023-04-04T05:17:50.751Z,1025.56
2023-04-04T05:18:51.428Z,1025.53
2023-04-04T05:19:51.427Z,1025.59
2023-04-04T05:20:50.716Z,1025.63
2023-04-04T05:21:51.396Z,1025.61
2023-04-04T05:22:51.637Z,1025.61
2023-04-04T05:23:51.371Z,1025.68
2023-04-04T05:24:51.350Z,1025.60
2023-04-04T05:25:51.349Z,1025.58
2023-04-04T05:26:51.336Z,1025.59
2023-04-04T05:27:50.647Z,1025.64
2023-04-04T05:28:51.315Z,1025.59
2023-04-04T05:29:50.631Z,1025.60
2023-04-04T05:30:51.298Z,1025.59
2023-04-04T05:31:51.326Z,1025.61
2023-04-04T05:32:50.606Z,1025.58
2023-04-04T05:33:50.570Z,1025.53
2023-04-04T05:34:51.238Z,1025.56
2023-04-04T05:35:51.348Z,1025.56
2023-04-04T05:36:51.234Z,1025.59
2023-04-04T05:37:51.221Z,1025.56
2023-04-04T05:38:50.532Z,1025.61
2023-04-04T05:39:51.202Z,1025.57
2023-04-04T05:40:50.511Z,1025.62
2023-04-04T05:41:50.506Z,1025.61
2023-04-04T05:42:51.175Z,1025.68
2023-04-04T05:43:50.483Z,1025.66
2023-04-04T05:44:51.140Z,1025.68
2023-04-04T05:45:50.478Z,1025.71
2023-04-04T05:46:50.447Z,1025.78
2023-04-04T05:47:51.184Z,1025.84
2023-04-04T05:48:51.113Z,1025.81
2023-04-04T05:49:51.130Z,1025.80
2023-04-04T05:50:51.093Z,1025.73
2023-04-04T05:51:51.081Z,1025.77
2023-04-04T05:52:50.398Z,1025.77
2023-04-04T05:53:51.061Z,1025.82
2023-04-04T05:54:50.385Z,1025.86
2023-04-04T05:55:50.364Z,1025.91
2023-04-04T05:56:51.040Z,1025.92
2023-04-04T05:57:51.023Z,1025.96
2023-04-04T05:58:51.036Z,1026.04
2023-04-04T05:59:50.333Z,1026.11
2023-04-04T06:00:50.297Z,1026.16
2023-04-04T06:01:50.971Z,1026.06
2023-04-04T06:02:51.008Z,1026.04
2023-04-04T06:03:51.041Z,1026.06
2023-04-04T06:04:50.946Z,1025.99
2023-04-04T06:05:50.336Z,1025.99
2023-04-04T06:06:50.919Z,1025.97
2023-04-04T06:07:50.905Z,1025.93
2023-04-04T06:08:53.939Z,1025.96
2023-04-04T06:09:50.212Z,1026.06
2023-04-04T06:10:50.873Z,1026.16
2023-04-04T06:11:50.871Z,1026.16
2023-04-04T06:12:50.868Z,1026.07
2023-04-04T06:13:50.852Z,1026.09
2023-04-04T06:14:50.821Z,1026.12
2023-04-04T06:15:50.154Z,1026.08
2023-04-04T06:16:50.129Z,1026.15
2023-04-04T06:17:50.171Z,1026.16
2023-04-04T06:18:50.796Z,1026.23
2023-04-04T06:19:50.785Z,1026.19
2023-04-04T06:20:50.771Z,1026.18
2023-04-04T06:21:50.092Z,1026.18
2023-04-04T06:22:50.065Z,1026.12
2023-04-04T06:23:50.071Z,1026.12
2023-04-04T06:24:50.070Z,1026.18
2023-04-04T06:25:50.718Z,1026.16
2023-04-04T06:26:50.031Z,1026.15
2023-04-04T06:27:50.013Z,1026.20
2023-04-04T06:28:50.004Z,1026.24
2023-04-04T06:29:50.020Z,1026.28
2023-04-04T06:30:49.983Z,1026.32
2023-04-04T06:31:50.019Z,1026.26
2023-04-04T06:32:50.700Z,1026.33
2023-04-04T06:33:49.977Z,1026.36
2023-04-04T06:34:49.949Z,1026.33
2023-04-04T06:35:50.625Z,1026.24
2023-04-04T06:36:49.921Z,1026.25
2023-04-04T06:37:49.910Z,1026.27
2023-04-04T06:38:49.892Z,1026.32
2023-04-04T06:39:49.882Z,1026.36
2023-04-04T06:40:49.886Z,1026.38
2023-04-04T06:41:50.546Z,1026.40
2023-04-04T06:42:50.547Z,1026.45
2023-04-04T06:43:50.549Z,1026.49
2023-04-04T06:44:49.820Z,1026.48
2023-04-04T06:45:50.478Z,1026.46
2023-04-04T06:46:49.841Z,1026.50
2023-04-04T06:47:50.490Z,1026.50
2023-04-04T06:48:50.480Z,1026.53
2023-04-04T06:49:50.436Z,1026.53
2023-04-04T06:50:49.769Z,1026.47
2023-04-04T06:51:49.757Z,1026.49
2023-04-04T06:52:49.765Z,1026.50
2023-04-04T06:53:49.740Z,1026.42
2023-04-04T06:54:50.384Z,1026.40
2023-04-04T06:55:49.694Z,1026.38
2023-04-04T06:56:49.700Z,1026.41
2023-04-04T06:57:49.691Z,1026.46
2023-04-04T06:58:49.701Z,1026.50
2023-04-04T06:59:49.681Z,1026.51
2023-04-04T07:00:50.358Z,1026.53
2023-04-04T07:01:50.368Z,1026.56
2023-04-04T07:02:50.632Z,1026.55
2023-04-04T07:03:50.301Z,1026.51
2023-04-04T07:04:49.631Z,1026.55
2023-04-04T07:05:49.591Z,1026.56
2023-04-04T07:06:50.271Z,1026.55
2023-04-04T07:07:49.572Z,1026.62
2023-04-04T07:08:49.618Z,1026.58
2023-04-04T07:09:49.575Z,1026.56
2023-04-04T07:10:50.230Z,1026.56
2023-04-04T07:11:49.528Z,1026.56
2023-04-04T07:12:49.527Z,1026.55
2023-04-04T07:13:49.503Z,1026.56
2023-04-04T07:14:49.518Z,1026.47
2023-04-04T07:15:49.487Z,1026.42
2023-04-04T07:16:50.247Z,1026.52
2023-04-04T07:17:50.175Z,1026.47
2023-04-04T07:18:49.447Z,1026.52
2023-04-04T07:19:49.454Z,1026.56
2023-04-04T07:20:50.119Z,1026.53
2023-04-04T07:21:50.109Z,1026.49
2023-04-04T07:22:50.096Z,1026.46
2023-04-04T07:23:50.093Z,1026.47
2023-04-04T07:24:49.501Z,1026.50
2023-04-04T07:25:49.480Z,1026.58
2023-04-04T07:26:50.065Z,1026.55
2023-04-04T07:27:50.432Z,1026.65
2023-04-04T07:28:49.349Z,1026.66
2023-04-04T07:29:50.009Z,1026.66
2023-04-04T07:30:49.323Z,1026.70
2023-04-04T07:31:49.419Z,1026.71
2023-04-04T07:32:50.030Z,1026.77
2023-04-04T07:33:49.981Z,1026.76
2023-04-04T07:34:49.976Z,1026.83
2023-04-04T07:35:49.359Z,1026.84
2023-04-04T07:36:49.261Z,1026.93
2023-04-04T07:37:49.241Z,1026.96
2023-04-04T07:38:49.236Z,1026.98
2023-04-04T07:39:49.220Z,1027.01
2023-04-04T07:40:49.888Z,1027.03
2023-04-04T07:41:49.899Z,1027.04
2023-04-04T07:42:49.200Z,1027.14
2023-04-04T07:43:49.186Z,1027.24
2023-04-04T07:44:49.176Z,1027.32
2023-04-04T07:45:49.885Z,1027.40
2023-04-04T07:47:02.336Z,1027.43
2023-04-04T07:47:50.176Z,1027.46
2023-04-04T07:48:49.135Z,1027.44
2023-04-04T07:49:49.119Z,1027.33
2023-04-04T07:50:49.120Z,1027.30
2023-04-04T07:51:49.779Z,1027.36
2023-04-04T07:52:49.082Z,1027.43
2023-04-04T07:53:49.072Z,1027.39
2023-04-04T07:54:49.058Z,1027.36
2023-04-04T07:55:49.102Z,1027.35
2023-04-04T07:56:49.785Z,1027.32
2023-04-04T07:57:49.798Z,1027.22
2023-04-04T07:58:49.055Z,1027.18
2023-04-04T07:59:49.005Z,1027.23
2023-04-04T08:00:49.008Z,1027.17
2023-04-04T08:01:48.993Z,1027.18
2023-04-04T08:02:49.787Z,1027.18
2023-04-04T08:03:49.769Z,1027.15
2023-04-04T08:04:49.027Z,1027.13
2023-04-04T08:05:49.607Z,1027.20
2023-04-04T08:06:48.922Z,1027.11
2023-04-04T08:07:49.625Z,1027.05
2023-04-04T08:08:49.595Z,1027.05
2023-04-04T08:09:48.897Z,1026.98
2023-04-04T08:10:49.563Z,1026.95
2023-04-04T08:11:49.573Z,1026.88
2023-04-04T08:12:48.866Z,1026.85
2023-04-04T08:13:48.853Z,1026.86
2023-04-04T08:14:49.526Z,1026.82
2023-04-04T08:15:49.551Z,1026.75
2023-04-04T08:16:48.821Z,1026.66
2023-04-04T08:17:49.525Z,1026.68
2023-04-04T08:18:48.804Z,1026.63
2023-04-04T08:19:49.469Z,1026.66
2023-04-04T08:20:49.447Z,1026.66
2023-04-04T08:21:48.789Z,1026.61
2023-04-04T08:22:50.701Z,1026.62
2023-04-04T08:23:49.426Z,1026.64
2023-04-04T08:24:48.729Z,1026.61
2023-04-04T08:25:48.793Z,1026.61
2023-04-04T08:26:58.300Z,1026.61
2023-04-04T08:27:50.379Z,1026.61
2023-04-04T08:28:49.368Z,1026.67
2023-04-04T08:29:49.362Z,1026.64
2023-04-04T08:30:49.329Z,1026.65
2023-04-04T08:31:49.392Z,1026.59
2023-04-04T08:32:49.339Z,1026.57
2023-04-04T08:33:49.377Z,1026.54
2023-04-04T08:34:48.636Z,1026.56
2023-04-04T08:35:49.316Z,1026.55
2023-04-04T08:36:49.288Z,1026.52
2023-04-04T08:37:49.270Z,1026.51
2023-04-04T08:38:49.265Z,1026.50
2023-04-04T08:39:48.636Z,1026.47
2023-04-04T08:40:48.570Z,1026.52
2023-04-04T08:41:48.559Z,1026.48
2023-04-04T08:42:48.535Z,1026.49
2023-04-04T08:43:49.201Z,1026.48
2023-04-04T08:44:49.193Z,1026.51
2023-04-04T08:45:49.164Z,1026.45
2023-04-04T08:46:49.256Z,1026.46
2023-04-04T08:47:49.217Z,1026.50
2023-04-04T08:48:48.483Z,1026.51
2023-04-04T08:49:49.146Z,1026.52
2023-04-04T08:50:49.114Z,1026.53
2023-04-04T08:51:48.454Z,1026.51
2023-04-04T08:52:48.438Z,1026.52
2023-04-04T08:53:49.099Z,1026.51
2023-04-04T08:54:49.101Z,1026.60
2023-04-04T08:55:49.061Z,1026.57
2023-04-04T08:56:50.672Z,1026.53
2023-04-04T08:57:49.057Z,1026.52
2023-04-04T08:58:49.161Z,1026.47
2023-04-04T08:59:49.079Z,1026.44
2023-04-04T09:00:49.027Z,1026.37
2023-04-04T09:01:49.025Z,1026.35
2023-04-04T09:02:48.379Z,1026.31
2023-04-04T09:03:48.319Z,1026.32
2023-04-04T09:04:58.187Z,1026.33
2023-04-04T09:05:50.718Z,1026.31
2023-04-04T09:06:48.940Z,1026.25
2023-04-04T09:07:48.266Z,1026.27
2023-04-04T09:08:48.254Z,1026.28
2023-04-04T09:09:48.246Z,1026.25
2023-04-04T09:10:48.259Z,1026.24
2023-04-04T09:11:48.224Z,1026.25
2023-04-04T09:12:48.243Z,1026.24
2023-04-04T09:13:48.495Z,1026.20
2023-04-04T09:14:48.208Z,1026.20
2023-04-04T09:15:48.207Z,1026.15
2023-04-04T09:16:48.221Z,1026.13
2023-04-04T09:17:48.192Z,1026.14
2023-04-04T09:18:48.830Z,1026.08
2023-04-04T09:19:48.819Z,1026.08
2023-04-04T09:20:48.140Z,1026.09
2023-04-04T09:21:48.782Z,1026.08
2023-04-04T09:22:48.781Z,1026.05
2023-04-04T09:23:48.775Z,1026.07
2023-04-04T09:24:48.761Z,1026.01
2023-04-04T09:26:02.584Z,1025.99
2023-04-04T09:26:50.572Z,1026.01
2023-04-04T09:27:48.031Z,1025.95
2023-04-04T09:28:48.034Z,1025.90
2023-04-04T09:29:48.033Z,1025.97
2023-04-04T09:30:48.677Z,1025.97
2023-04-04T09:31:48.918Z,1025.95
2023-04-04T09:32:48.716Z,1025.93
2023-04-04T09:33:47.977Z,1025.97
2023-04-04T09:34:48.657Z,1026.06
2023-04-04T09:35:48.011Z,1025.96
2023-04-04T09:36:47.957Z,1025.97
2023-04-04T09:37:47.940Z,1025.97
2023-04-04T09:38:47.928Z,1025.98
2023-04-04T09:39:48.606Z,1025.89
2023-04-04T09:40:48.615Z,1025.96
2023-04-04T09:41:48.569Z,1025.91
2023-04-04T09:42:47.886Z,1025.93
2023-04-04T09:43:47.900Z,1025.91
2023-04-04T09:44:47.893Z,1025.90
2023-04-04T09:45:48.748Z,1025.91
2023-04-04T09:46:48.511Z,1025.95
2023-04-04T09:47:48.562Z,1025.91
2023-04-04T09:48:47.811Z,1025.94
2023-04-04T09:49:48.492Z,1025.85
2023-04-04T09:50:47.845Z,1025.91
2023-04-04T09:51:49.263Z,1025.86
2023-04-04T09:52:48.463Z,1025.86
2023-04-04T09:53:47.743Z,1025.82
2023-04-04T09:54:48.347Z,1025.84
2023-04-04T09:55:48.397Z,1025.82
2023-04-04T09:56:47.756Z,1025.79
2023-04-04T09:57:48.402Z,1025.80
2023-04-04T09:59:00.777Z,1025.76
2023-04-04T09:59:48.763Z,1025.71
2023-04-04T10:00:48.381Z,1025.76
2023-04-04T10:01:47.718Z,1025.76
2023-04-04T10:02:47.749Z,1025.76
2023-04-04T10:03:48.368Z,1025.73
2023-04-04T10:04:51.077Z,1025.72
2023-04-04T10:05:48.625Z,1025.77
2023-04-04T10:06:47.719Z,1025.76
2023-04-04T10:07:47.616Z,1025.75
2023-04-04T10:08:48.305Z,1025.77
2023-04-04T10:09:48.275Z,1025.79
2023-04-04T10:10:58.833Z,1025.81
2023-04-04T10:11:50.013Z,1025.74
2023-04-04T10:12:48.241Z,1025.77
2023-04-04T10:13:48.229Z,1025.77
2023-04-04T10:14:47.543Z,1025.79
2023-04-04T10:15:48.305Z,1025.79
2023-04-04T10:16:48.179Z,1025.82
2023-04-04T10:17:48.215Z,1025.84
2023-04-04T10:18:47.493Z,1025.86
2023-04-04T10:19:48.437Z,1025.78
2023-04-04T10:20:48.154Z,1025.76
2023-04-04T10:21:48.132Z,1025.75
2023-04-04T10:22:47.445Z,1025.78
2023-04-04T10:23:48.133Z,1025.72
2023-04-04T10:24:47.426Z,1025.71
2023-04-04T10:25:48.098Z,1025.69
2023-04-04T10:26:48.065Z,1025.67
2023-04-04T10:27:47.804Z,1025.69
2023-04-04T10:28:47.374Z,1025.66
2023-04-04T10:29:48.053Z,1025.72
2023-04-04T10:30:59.357Z,1025.67
2023-04-04T10:31:49.059Z,1025.69
2023-04-04T10:32:48.089Z,1025.71
2023-04-04T10:33:48.016Z,1025.74
2023-04-04T10:34:47.311Z,1025.74
2023-04-04T10:35:47.355Z,1025.75
2023-04-04T10:36:47.312Z,1025.81
2023-04-04T10:37:47.983Z,1025.76
2023-04-04T10:38:47.953Z,1025.63
2023-04-04T10:39:47.944Z,1025.64
2023-04-04T10:40:47.250Z,1025.65
2023-04-04T10:41:47.913Z,1025.62
2023-04-04T10:42:48.020Z,1025.62
2023-04-04T10:43:47.916Z,1025.60
2023-04-04T10:44:47.895Z,1025.57
2023-04-04T10:45:47.216Z,1025.53
2023-04-04T10:46:47.232Z,1025.50
2023-04-04T10:47:47.886Z,1025.46
2023-04-04T10:48:47.854Z,1025.47
2023-04-04T10:49:47.842Z,1025.46
2023-04-04T10:50:47.163Z,1025.47
2023-04-04T10:51:55.682Z,1025.43
2023-04-04T10:52:48.100Z,1025.46
2023-04-04T10:53:47.105Z,1025.41
2023-04-04T10:54:47.796Z,1025.45
2023-04-04T10:55:47.779Z,1025.47
2023-04-04T10:56:47.744Z,1025.43
2023-04-04T10:57:47.755Z,1025.41
2023-04-04T10:58:47.114Z,1025.38
2023-04-04T10:59:47.731Z,1025.36
2023-04-04T11:00:47.818Z,1025.38
2023-04-04T11:01:47.015Z,1025.36
2023-04-04T11:02:47.795Z,1025.33
2023-04-04T11:03:47.692Z,1025.35
2023-04-04T11:04:46.979Z,1025.28
2023-04-04T11:05:47.658Z,1025.24
2023-04-04T11:06:47.668Z,1025.25
2023-04-04T11:08:00.725Z,1025.26
2023-04-04T11:08:47.930Z,1025.28
2023-04-04T11:09:46.941Z,1025.29
2023-04-04T11:10:47.608Z,1025.29
2023-04-04T11:11:47.601Z,1025.33
2023-04-04T11:12:47.571Z,1025.32
2023-04-04T11:13:47.570Z,1025.36
2023-04-04T11:14:46.879Z,1025.34
2023-04-04T11:15:47.557Z,1025.35
2023-04-04T11:16:46.908Z,1025.29
2023-04-04T11:17:46.901Z,1025.35
2023-04-04T11:18:47.519Z,1025.37
2023-04-04T11:19:47.508Z,1025.36
2023-04-04T11:20:46.825Z,1025.31
2023-04-04T11:21:46.818Z,1025.25
2023-04-04T11:22:46.823Z,1025.27
2023-04-04T11:23:48.792Z,1025.27
2023-04-04T11:24:47.455Z,1025.24
2023-04-04T11:25:46.773Z,1025.24
2023-04-04T11:26:47.431Z,1025.22
2023-04-04T11:27:46.835Z,1025.17
2023-04-04T11:28:46.724Z,1025.12
2023-04-04T11:29:47.402Z,1025.09
2023-04-04T11:30:47.406Z,1025.06
2023-04-04T11:31:46.719Z,1025.11
2023-04-04T11:32:59.943Z,1025.10
2023-04-04T11:33:47.672Z,1025.06
2023-04-04T11:34:47.366Z,1025.04
2023-04-04T11:35:46.666Z,1025.06
2023-04-04T11:36:46.638Z,1025.07
2023-04-04T11:37:47.292Z,1025.08
2023-04-04T11:38:46.622Z,1025.05
2023-04-04T11:39:46.634Z,1025.07
2023-04-04T11:40:46.593Z,1025.07
2023-04-04T11:41:47.266Z,1025.06
2023-04-04T11:42:46.606Z,1025.06
2023-04-04T11:43:47.266Z,1025.05
2023-04-04T11:44:46.548Z,1025.05
2023-04-04T11:45:47.259Z,1025.06
2023-04-04T11:46:48.528Z,1025.00
2023-04-04T11:47:47.292Z,1024.98
2023-04-04T11:48:47.195Z,1024.93
2023-04-04T11:49:47.204Z,1024.94
2023-04-04T11:50:46.492Z,1024.90
2023-04-04T11:51:47.164Z,1024.89
2023-04-04T11:52:46.490Z,1024.87
2023-04-04T11:53:47.137Z,1024.91
2023-04-04T11:54:47.133Z,1024.89
2023-04-04T11:55:47.120Z,1024.91
2023-04-04T11:56:46.430Z,1024.84
2023-04-04T11:57:46.425Z,1024.85
2023-04-04T11:58:47.148Z,1024.82
2023-04-04T11:59:47.167Z,1024.80
2023-04-04T12:00:46.387Z,1024.83
2023-04-04T12:01:46.378Z,1024.80
2023-04-04T12:02:46.440Z,1024.78
2023-04-04T12:03:47.083Z,1024.79
2023-04-04T12:04:47.042Z,1024.76
2023-04-04T12:05:46.352Z,1024.71